createdAt,value
2022-11-03T00:02:03.223Z,95036.72
2022-11-03T00:04:30.035Z,95048.78
2022-11-03T00:06:57.076Z,95026.78
2022-11-03T00:09:27.276Z,95045.72
2022-11-03T00:11:54.410Z,95045.47
2022-11-03T00:14:21.151Z,95052.91
2022-11-03T00:16:48.286Z,95041.22
2022-11-03T00:19:17.354Z,95046.41
2022-11-03T00:21:45.286Z,95050.44
2022-11-03T00:24:13.268Z,95056.00
2022-11-03T00:26:40.224Z,95041.09
2022-11-03T00:29:10.752Z,95036.25
2022-11-03T00:31:40.615Z,95035.53
2022-11-03T00:34:07.843Z,95030.47
2022-11-03T00:36:40.857Z,95038.50
2022-11-03T00:39:08.411Z,95026.31
2022-11-03T00:41:35.619Z,95018.53
2022-11-03T00:44:02.556Z,95015.66
2022-11-03T00:46:30.637Z,95014.72
2022-11-03T00:48:57.422Z,95005.28
2022-11-03T00:51:27.713Z,95003.81
2022-11-03T00:53:57.783Z,94987.75
2022-11-03T00:56:31.253Z,94992.59
2022-11-03T00:59:00.495Z,94970.75
2022-11-03T01:01:42.195Z,94968.38
2022-11-03T01:04:32.098Z,94966.72
2022-11-03T01:07:00.774Z,94973.09
2022-11-03T01:09:40.631Z,94973.34
2022-11-03T01:12:19.243Z,94969.19
2022-11-03T01:14:52.350Z,94949.91
2022-11-03T01:17:28.340Z,94951.72
2022-11-03T01:19:55.933Z,94957.38
2022-11-03T01:22:24.418Z,94947.56
2022-11-03T01:24:53.871Z,94952.63
2022-11-03T01:27:23.194Z,94950.72
2022-11-03T01:29:49.932Z,94938.78
2022-11-03T01:32:16.679Z,94958.06
2022-11-03T01:34:43.423Z,94954.97
2022-11-03T01:37:10.191Z,94952.78
2022-11-03T01:39:36.943Z,94957.00
2022-11-03T01:42:03.862Z,94946.38
2022-11-03T01:44:35.577Z,94955.03
2022-11-03T01:47:24.660Z,94944.34
2022-11-03T01:50:10.127Z,94930.31
2022-11-03T01:52:58.939Z,94935.97
2022-11-03T01:55:39.295Z,94934.31
2022-11-03T01:58:16.604Z,94936.44
2022-11-03T02:00:46.272Z,94929.81
2022-11-03T02:03:14.141Z,94913.03
2022-11-03T02:05:43.915Z,94929.84
2022-11-03T02:08:23.186Z,94920.84
2022-11-03T02:10:51.893Z,94921.91
2022-11-03T02:13:22.863Z,94917.06
2022-11-03T02:15:53.894Z,94921.78
2022-11-03T02:18:26.691Z,94914.59
2022-11-03T02:21:27.475Z,94920.84
2022-11-03T02:24:12.647Z,94919.91
2022-11-03T02:26:41.555Z,94906.19
2022-11-03T02:29:08.251Z,94898.50
2022-11-03T02:31:43.776Z,94902.50
2022-11-03T02:34:21.304Z,94893.44
2022-11-03T02:36:55.168Z,94895.91
2022-11-03T02:39:30.515Z,94889.66
2022-11-03T02:41:59.162Z,94899.81
2022-11-03T02:44:27.163Z,94883.25
2022-11-03T02:47:01.507Z,94886.78
2022-11-03T02:49:28.407Z,94873.09
2022-11-03T02:52:02.539Z,94877.25
2022-11-03T02:54:36.461Z,94877.59
2022-11-03T02:57:10.283Z,94866.00
2022-11-03T02:59:46.887Z,94864.38
2022-11-03T03:02:22.948Z,94846.28
2022-11-03T03:04:56.600Z,94851.59
2022-11-03T03:07:33.698Z,94836.31
2022-11-03T03:10:10.737Z,94833.59
2022-11-03T03:12:43.517Z,94838.81
2022-11-03T03:15:10.459Z,94836.78
2022-11-03T03:18:21.839Z,94836.19
2022-11-03T03:21:01.947Z,94837.72
2022-11-03T03:23:35.828Z,94831.59
2022-11-03T03:26:11.263Z,94829.53
2022-11-03T03:28:44.688Z,94819.06
2022-11-03T03:31:15.080Z,94829.31
2022-11-03T03:33:47.593Z,94825.19
2022-11-03T03:36:18.080Z,94819.88
2022-11-03T03:38:52.495Z,94811.69
2022-11-03T03:41:22.916Z,94805.22
2022-11-03T03:43:53.740Z,94812.09
2022-11-03T03:46:23.456Z,94811.88
2022-11-03T03:48:50.154Z,94803.16
2022-11-03T03:51:22.471Z,94803.38
2022-11-03T03:53:53.613Z,94797.59
2022-11-03T03:56:57.853Z,94803.53
2022-11-03T03:59:24.668Z,94797.84
2022-11-03T04:01:51.438Z,94786.38
2022-11-03T04:04:18.260Z,94788.97
2022-11-03T04:06:46.322Z,94774.81
2022-11-03T04:09:13.479Z,94777.16
2022-11-03T04:11:58.701Z,94773.38
2022-11-03T04:14:43.985Z,94774.56
2022-11-03T04:17:39.651Z,94775.50
2022-11-03T04:20:32.131Z,94764.16
2022-11-03T04:22:58.922Z,94758.69
2022-11-03T04:25:25.680Z,94762.47
2022-11-03T04:27:52.399Z,94762.16
2022-11-03T04:30:21.212Z,94764.97
2022-11-03T04:32:50.102Z,94758.69
2022-11-03T04:35:25.397Z,94761.56
2022-11-03T04:37:59.110Z,94750.47
2022-11-03T04:40:25.979Z,94739.47
2022-11-03T04:42:53.093Z,94740.56
2022-11-03T04:45:31.272Z,94732.31
2022-11-03T04:48:02.148Z,94741.97
2022-11-03T04:50:28.968Z,94746.22
2022-11-03T04:52:59.005Z,94743.88
2022-11-03T04:55:26.988Z,94746.09
2022-11-03T04:58:11.256Z,94729.47
2022-11-03T05:00:37.981Z,94733.66
2022-11-03T05:03:04.863Z,94727.28
2022-11-03T05:05:31.590Z,94717.69
2022-11-03T05:07:59.206Z,94713.56
2022-11-03T05:10:28.737Z,94708.38
2022-11-03T05:12:56.671Z,94703.88
2022-11-03T05:15:37.272Z,94695.63
2022-11-03T05:18:30.250Z,94705.19
2022-11-03T05:21:00.341Z,94710.88
2022-11-03T05:23:30.556Z,94713.56
2022-11-03T05:25:59.518Z,94712.28
2022-11-03T05:28:48.127Z,94709.09
2022-11-03T05:31:33.649Z,94711.69
2022-11-03T05:34:33.302Z,94692.66
2022-11-03T05:37:11.404Z,94695.09
2022-11-03T05:39:43.962Z,94679.75
2022-11-03T05:42:42.531Z,94684.94
2022-11-03T05:45:31.635Z,94690.97
2022-11-03T05:47:58.895Z,94681.88
2022-11-03T05:50:29.147Z,94682.16
2022-11-03T05:53:14.163Z,94681.56
2022-11-03T05:55:41.172Z,94684.75
2022-11-03T05:58:40.310Z,94676.94
2022-11-03T06:01:33.018Z,94680.00
2022-11-03T06:04:34.393Z,94682.63
2022-11-03T06:07:21.005Z,94679.19
2022-11-03T06:09:47.728Z,94677.56
2022-11-03T06:12:19.770Z,94664.06
2022-11-03T06:14:46.759Z,94661.81
2022-11-03T06:17:25.560Z,94672.22
2022-11-03T06:19:59.463Z,94668.91
2022-11-03T06:22:38.438Z,94662.22
2022-11-03T06:25:36.735Z,94664.81
2022-11-03T06:28:24.969Z,94663.03
2022-11-03T06:30:52.287Z,94660.22
2022-11-03T06:33:48.048Z,94661.28
2022-11-03T06:36:22.872Z,94650.03
2022-11-03T06:39:27.563Z,94645.66
2022-11-03T06:41:54.300Z,94637.28
2022-11-03T06:44:25.140Z,94643.41
2022-11-03T06:46:56.262Z,94633.22
2022-11-03T06:49:36.131Z,94624.38
2022-11-03T06:52:20.967Z,94645.25
2022-11-03T06:54:49.836Z,94630.59
2022-11-03T06:57:18.877Z,94639.91
2022-11-03T06:59:46.148Z,94631.91
2022-11-03T07:02:50.464Z,94647.16
2022-11-03T07:05:30.773Z,94643.59
2022-11-03T07:08:01.111Z,94628.31
2022-11-03T07:10:31.528Z,94622.56
2022-11-03T07:13:07.427Z,94622.88
2022-11-03T07:15:40.169Z,94622.19
2022-11-03T07:18:35.716Z,94628.00
2022-11-03T07:21:36.195Z,94606.63
2022-11-03T07:24:20.772Z,94608.47
2022-11-03T07:26:47.827Z,94612.56
2022-11-03T07:29:21.759Z,94602.75
2022-11-03T07:31:49.904Z,94592.22
2022-11-03T07:34:23.095Z,94601.31
2022-11-03T07:36:55.329Z,94596.41
2022-11-03T07:39:22.571Z,94595.31
2022-11-03T07:41:50.431Z,94596.47
2022-11-03T07:44:23.599Z,94593.41
2022-11-03T07:46:50.996Z,94593.03
2022-11-03T07:49:27.790Z,94593.94
2022-11-03T07:51:56.737Z,94583.22
2022-11-03T07:54:30.765Z,94575.41
2022-11-03T07:57:05.393Z,94584.50
2022-11-03T07:59:44.755Z,94583.84
2022-11-03T08:02:30.905Z,94582.75
2022-11-03T08:04:58.840Z,94549.41
2022-11-03T08:07:27.985Z,94566.03
2022-11-03T08:09:55.227Z,94550.13
2022-11-03T08:12:22.366Z,94543.69
2022-11-03T08:14:49.090Z,94557.97
2022-11-03T08:17:15.989Z,94561.66
2022-11-03T08:19:43.043Z,94553.03
2022-11-03T08:22:09.841Z,94547.00
2022-11-03T08:24:36.660Z,94548.91
2022-11-03T08:27:04.623Z,94535.56
2022-11-03T08:29:31.530Z,94536.00
2022-11-03T08:31:58.285Z,94525.00
2022-11-03T08:34:25.007Z,94521.13
2022-11-03T08:36:51.788Z,94524.28
2022-11-03T08:39:18.510Z,94523.56
2022-11-03T08:41:45.202Z,94509.00
2022-11-03T08:44:11.924Z,94508.16
2022-11-03T08:46:38.698Z,94503.03
2022-11-03T08:49:05.402Z,94499.28
2022-11-03T08:51:32.612Z,94511.41
2022-11-03T08:53:59.341Z,94512.09
2022-11-03T08:56:26.069Z,94498.06
2022-11-03T08:58:52.852Z,94450.69
2022-11-03T09:01:19.698Z,94497.66
2022-11-03T09:03:46.515Z,94509.41
2022-11-03T09:06:13.263Z,94507.59
2022-11-03T09:11:26.760Z,94512.53
2022-11-03T09:13:53.638Z,94508.06
2022-11-03T09:16:20.369Z,94509.47
2022-11-03T09:18:47.222Z,94517.41
2022-11-03T09:21:15.089Z,94497.84
2022-11-03T09:23:42.138Z,94492.88
2022-11-03T09:26:08.876Z,94481.22
2022-11-03T09:28:35.598Z,94484.28
2022-11-03T09:31:02.399Z,94479.41
2022-11-03T09:33:29.181Z,94473.38
2022-11-03T09:35:55.972Z,94471.75
2022-11-03T09:38:22.674Z,94460.16
2022-11-03T09:40:49.608Z,94457.78
2022-11-03T09:43:16.384Z,94466.78
2022-11-03T09:45:43.142Z,94479.09
2022-11-03T09:48:13.266Z,94478.84
2022-11-03T09:50:40.670Z,94482.16
2022-11-03T09:53:12.901Z,94476.44
2022-11-03T09:55:40.955Z,94469.22
2022-11-03T09:58:15.322Z,94470.28
2022-11-03T10:00:42.334Z,94463.91
2022-11-03T10:03:13.552Z,94468.69
2022-11-03T10:05:42.855Z,94452.34
2022-11-03T10:08:30.802Z,94454.47
2022-11-03T10:10:58.330Z,94441.91
2022-11-03T10:13:36.305Z,94440.13
2022-11-03T10:16:05.767Z,94425.84
2022-11-03T10:18:34.435Z,94442.28
2022-11-03T10:21:26.912Z,94438.25
2022-11-03T10:23:53.690Z,94415.16
2022-11-03T10:26:20.973Z,94432.22
2022-11-03T10:29:09.918Z,94419.75
2022-11-03T10:31:41.781Z,94400.25
2022-11-03T10:34:39.493Z,94404.53
2022-11-03T10:37:21.087Z,94394.34
2022-11-03T10:39:50.097Z,94400.06
2022-11-03T10:42:21.266Z,94389.75
2022-11-03T10:44:52.283Z,94392.66
2022-11-03T10:47:33.841Z,94393.50
2022-11-03T10:50:17.703Z,94393.31
2022-11-03T10:52:44.541Z,94385.72
2022-11-03T10:55:11.381Z,94390.94
2022-11-03T10:57:38.494Z,94374.34
2022-11-03T11:00:09.507Z,94382.69
2022-11-03T11:02:36.853Z,94383.25
2022-11-03T11:05:19.553Z,94376.25
2022-11-03T11:07:46.744Z,94370.00
2022-11-03T11:10:26.955Z,94376.53
2022-11-03T11:13:18.895Z,94377.84
2022-11-03T11:15:48.599Z,94374.56
2022-11-03T11:18:30.354Z,94367.34
2022-11-03T11:20:58.378Z,94361.63
2022-11-03T11:23:28.012Z,94352.63
2022-11-03T11:26:09.596Z,94356.88
2022-11-03T11:28:45.479Z,94340.63
2022-11-03T11:31:28.383Z,94344.75
2022-11-03T11:34:10.578Z,94341.47
2022-11-03T11:36:39.724Z,94326.69
2022-11-03T11:39:24.857Z,94350.00
2022-11-03T11:42:15.088Z,94334.59
2022-11-03T11:44:48.070Z,94344.28
2022-11-03T11:47:43.923Z,94332.25
2022-11-03T11:50:12.931Z,94334.25
2022-11-03T11:53:11.955Z,94321.75
2022-11-03T11:55:54.085Z,94320.34
2022-11-03T11:58:25.740Z,94316.25
2022-11-03T12:01:00.182Z,94312.63
2022-11-03T12:03:32.694Z,94304.09
2022-11-03T12:05:59.537Z,94302.56
2022-11-03T12:08:30.004Z,94304.00
2022-11-03T12:11:00.183Z,94295.41
2022-11-03T12:13:45.002Z,94287.53
2022-11-03T12:16:31.025Z,94283.91
2022-11-03T12:19:18.359Z,94267.25
2022-11-03T12:21:49.583Z,94263.41
2022-11-03T12:24:47.607Z,94258.81
2022-11-03T12:27:26.612Z,94246.59
2022-11-03T12:29:59.547Z,94225.94
2022-11-03T12:32:34.574Z,94242.28
2022-11-03T12:35:08.525Z,94237.22
2022-11-03T12:37:35.845Z,94224.47
2022-11-03T12:40:02.720Z,94219.38
2022-11-03T12:42:29.554Z,94197.16
2022-11-03T12:44:56.326Z,94204.63
2022-11-03T12:47:23.480Z,94202.63
2022-11-03T12:49:50.389Z,94181.13
2022-11-03T12:52:17.167Z,94180.22
2022-11-03T12:54:44.212Z,94191.19
2022-11-03T12:57:10.943Z,94188.84
2022-11-03T12:59:37.770Z,94179.97
2022-11-03T13:02:04.752Z,94183.66
2022-11-03T13:04:31.591Z,94159.19
2022-11-03T13:06:58.352Z,94160.63
2022-11-03T13:09:25.148Z,94147.28
2022-11-03T13:12:10.748Z,94147.47
2022-11-03T13:14:37.478Z,94138.31
2022-11-03T13:17:04.625Z,94122.34
2022-11-03T13:19:31.439Z,94117.50
2022-11-03T13:21:58.218Z,94112.22
2022-11-03T13:24:25.052Z,94106.97
2022-11-03T13:26:51.820Z,94105.34
2022-11-03T13:29:18.520Z,94117.50
2022-11-03T13:31:45.244Z,94098.81
2022-11-03T13:34:12.191Z,94096.19
2022-11-03T13:36:38.980Z,94092.13
2022-11-03T13:39:05.696Z,94077.78
2022-11-03T13:41:32.391Z,94073.25
2022-11-03T13:43:59.112Z,94062.72
2022-11-03T13:46:25.868Z,94071.59
2022-11-03T13:49:43.879Z,94053.38
2022-11-03T13:51:39.278Z,94048.03
2022-11-03T13:59:39.690Z,94033.16
2022-11-03T14:04:54.087Z,94024.41
2022-11-03T14:07:20.927Z,94021.72
2022-11-03T14:09:47.779Z,94033.00
2022-11-03T14:12:32.653Z,94017.69
2022-11-03T14:15:11.023Z,94040.31
2022-11-03T14:17:39.717Z,94039.44
2022-11-03T14:20:12.091Z,94040.09
2022-11-03T14:22:40.483Z,94028.41
2022-11-03T14:25:08.151Z,94022.69
2022-11-03T14:27:34.969Z,94018.25
2022-11-03T14:30:01.940Z,94003.19
2022-11-03T14:32:28.716Z,93998.13
2022-11-03T14:34:55.551Z,93992.88
2022-11-03T14:37:25.365Z,93986.97
2022-11-03T14:39:52.279Z,93982.97
2022-11-03T14:42:19.018Z,93977.88
2022-11-03T14:44:46.859Z,93975.59
2022-11-03T14:47:21.821Z,93968.38
2022-11-03T14:49:49.366Z,93961.69
2022-11-03T14:52:17.603Z,93969.19
2022-11-03T14:54:44.728Z,93976.44
2022-11-03T14:57:11.648Z,93931.72
2022-11-03T14:59:38.487Z,93967.56
2022-11-03T15:02:06.354Z,93967.31
2022-11-03T15:04:33.561Z,93921.09
2022-11-03T15:07:00.540Z,93925.34
2022-11-03T15:09:27.305Z,93934.38
2022-11-03T15:11:54.145Z,93939.47
2022-11-03T15:14:20.959Z,93927.50
2022-11-03T15:16:48.258Z,93907.56
2022-11-03T15:19:15.043Z,93924.59
2022-11-03T15:21:41.860Z,93916.91
2022-11-03T15:26:55.530Z,93904.75
2022-11-03T15:29:24.230Z,93899.91
2022-11-03T15:31:52.074Z,93879.56
2022-11-03T15:34:18.910Z,93896.75
2022-11-03T15:36:45.785Z,93878.97
2022-11-03T15:39:13.600Z,93862.75
2022-11-03T15:41:40.748Z,93851.31
2022-11-03T15:44:07.496Z,93869.00
2022-11-03T15:46:35.812Z,93888.56
2022-11-03T15:49:03.031Z,93882.66
2022-11-03T15:51:29.783Z,93864.78
2022-11-03T15:53:58.909Z,93873.44
2022-11-03T15:56:29.884Z,93882.06
2022-11-03T15:58:56.780Z,93861.91
2022-11-03T16:01:24.182Z,93851.09
2022-11-03T16:03:51.248Z,93869.28
2022-11-03T16:06:18.097Z,93851.81
2022-11-03T16:08:45.223Z,93855.41
2022-11-03T16:11:12.011Z,93860.22
2022-11-03T16:13:39.543Z,93834.41
2022-11-03T16:16:07.173Z,93824.56
2022-11-03T16:18:34.781Z,93806.28
2022-11-03T16:21:02.658Z,93788.66
2022-11-03T16:23:29.399Z,93779.94
2022-11-03T16:25:56.215Z,93799.03
2022-11-03T16:28:23.405Z,93794.50
2022-11-03T16:30:54.300Z,93800.19
2022-11-03T16:33:21.938Z,93790.31
2022-11-03T16:35:49.413Z,93784.13
2022-11-03T16:38:16.424Z,93788.81
2022-11-03T16:40:43.802Z,93780.94
2022-11-03T16:43:12.554Z,93782.19
2022-11-03T16:45:39.416Z,93786.78
2022-11-03T16:48:07.385Z,93781.28
2022-11-03T16:50:34.806Z,93776.81
2022-11-03T16:53:01.676Z,93768.69
2022-11-03T16:55:28.474Z,93766.63
2022-11-03T16:57:55.290Z,93769.25
2022-11-03T17:00:22.624Z,93764.81
2022-11-03T17:02:49.342Z,93765.44
2022-11-03T17:05:18.829Z,93776.38
2022-11-03T17:07:51.811Z,93767.13
2022-11-03T17:10:20.325Z,93757.81
2022-11-03T17:12:47.067Z,93754.19
2022-11-03T17:15:14.112Z,93749.13
2022-11-03T17:17:41.566Z,93739.41
2022-11-03T17:20:10.730Z,93741.28
2022-11-03T17:22:37.839Z,93725.47
2022-11-03T17:25:06.889Z,93739.69
2022-11-03T17:27:46.488Z,93748.56
2022-11-03T17:30:21.731Z,93733.53
2022-11-03T17:32:51.036Z,93714.53
2022-11-03T17:35:24.701Z,93724.41
2022-11-03T17:37:52.739Z,93735.19
2022-11-03T17:40:22.969Z,93734.78
2022-11-03T17:42:50.771Z,93732.34
2022-11-03T17:45:21.377Z,93724.69
2022-11-03T17:47:49.721Z,93715.72
2022-11-03T17:50:20.300Z,93718.59
2022-11-03T17:52:48.872Z,93712.69
2022-11-03T17:55:26.813Z,93723.72
2022-11-03T17:57:55.330Z,93734.34
2022-11-03T18:00:22.846Z,93733.41
2022-11-03T18:02:53.134Z,93726.34
2022-11-03T18:05:30.387Z,93741.53
2022-11-03T18:08:05.824Z,93732.16
2022-11-03T18:10:34.918Z,93736.66
2022-11-03T18:13:30.031Z,93717.59
2022-11-03T18:16:10.888Z,93717.22
2022-11-03T18:18:43.655Z,93706.56
2022-11-03T18:21:19.327Z,93695.81
2022-11-03T18:23:48.894Z,93689.50
2022-11-03T18:26:18.972Z,93685.94
2022-11-03T18:28:45.948Z,93660.50
2022-11-03T18:31:36.658Z,93669.63
2022-11-03T18:34:07.031Z,93666.19
2022-11-03T18:36:34.385Z,93670.63
2022-11-03T18:39:02.264Z,93698.31
2022-11-03T18:41:42.040Z,93713.56
2022-11-03T18:44:30.971Z,93701.00
2022-11-03T18:46:58.550Z,93712.13
2022-11-03T18:49:27.512Z,93695.91
2022-11-03T18:52:02.944Z,93686.69
2022-11-03T18:54:32.224Z,93675.81
2022-11-03T18:57:00.254Z,93678.25
2022-11-03T18:59:37.630Z,93659.25
2022-11-03T19:02:18.368Z,93643.06
2022-11-03T19:04:45.971Z,93630.47
2022-11-03T19:07:16.075Z,93636.16
2022-11-03T19:09:44.176Z,93615.16
2022-11-03T19:12:14.562Z,93600.88
2022-11-03T19:14:45.166Z,93588.13
2022-11-03T19:17:22.927Z,93575.63
2022-11-03T19:19:52.061Z,93568.09
2022-11-03T19:22:22.348Z,93538.81
2022-11-03T19:24:49.417Z,93530.31
2022-11-03T19:27:28.950Z,93517.41
2022-11-03T19:29:57.698Z,93512.00
2022-11-03T19:32:32.767Z,93518.22
2022-11-03T19:35:06.524Z,93513.81
2022-11-03T19:37:35.765Z,93513.38
2022-11-03T19:40:06.133Z,93503.25
2022-11-03T19:42:36.917Z,93507.31
2022-11-03T19:45:14.336Z,93498.44
2022-11-03T19:50:33.409Z,93493.56
2022-11-03T19:53:03.769Z,93496.25
2022-11-03T19:55:34.963Z,93493.63
2022-11-03T19:58:24.995Z,93481.47
2022-11-03T20:00:52.917Z,93483.25
2022-11-03T20:03:20.301Z,93491.00
2022-11-03T20:05:49.520Z,93496.84
2022-11-03T20:08:21.757Z,93492.75
2022-11-03T20:10:49.332Z,93503.94
2022-11-03T20:13:19.968Z,93488.38
2022-11-03T20:15:47.303Z,93523.00
2022-11-03T20:18:15.358Z,93518.94
2022-11-03T20:20:44.288Z,93531.50
2022-11-03T20:23:28.851Z,93531.88
2022-11-03T20:25:55.900Z,93521.75
2022-11-03T20:28:27.628Z,93544.25
2022-11-03T20:30:56.114Z,93550.47
2022-11-03T20:33:25.016Z,93552.13
2022-11-03T20:35:53.531Z,93556.56
2022-11-03T20:38:21.154Z,93548.47
2022-11-03T20:40:51.369Z,93544.06
2022-11-03T20:43:35.299Z,93549.72
2022-11-03T20:46:04.839Z,93550.47
2022-11-03T20:48:31.556Z,93558.34
2022-11-03T20:50:58.324Z,93558.00
2022-11-03T20:53:25.861Z,93566.84
2022-11-03T20:55:53.488Z,93570.72
2022-11-03T20:58:20.364Z,93570.09
2022-11-03T21:00:48.681Z,93575.97
2022-11-03T21:03:57.628Z,93579.00
2022-11-03T21:06:18.349Z,93580.72
2022-11-03T21:08:47.366Z,93586.19
2022-11-03T21:11:29.413Z,93585.19
2022-11-03T21:14:33.100Z,93587.44
2022-11-03T21:17:18.469Z,93583.94
2022-11-03T21:20:07.988Z,93600.13
2022-11-03T21:22:57.160Z,93601.38
2022-11-03T21:25:24.902Z,93614.38
2022-11-03T21:27:53.915Z,93623.00
2022-11-03T21:30:21.929Z,93607.34
2022-11-03T21:32:48.779Z,93599.84
2022-11-03T21:35:19.552Z,93604.78
2022-11-03T21:37:47.234Z,93599.19
2022-11-03T21:40:15.300Z,93605.31
2022-11-03T21:43:00.504Z,93611.44
2022-11-03T21:45:27.295Z,93607.59
2022-11-03T21:48:14.298Z,93607.78
2022-11-03T21:50:42.405Z,93620.97
2022-11-03T21:53:09.438Z,93623.63
2022-11-03T21:55:36.767Z,93640.84
2022-11-03T21:58:04.603Z,93647.75
2022-11-03T22:00:32.464Z,93659.97
2022-11-03T22:03:00.381Z,93674.53
2022-11-03T22:05:27.653Z,93674.97
2022-11-03T22:07:54.392Z,93691.16
2022-11-03T22:10:21.236Z,93688.31
2022-11-03T22:12:48.201Z,93690.41
2022-11-03T22:15:33.400Z,93688.41
2022-11-03T22:18:04.127Z,93699.00
2022-11-03T22:20:49.608Z,93699.97
2022-11-03T22:23:34.903Z,93706.06
2022-11-03T22:26:20.620Z,93703.25
2022-11-03T22:29:07.326Z,93685.03
2022-11-03T22:31:43.028Z,93650.69
2022-11-03T22:34:28.731Z,93699.00
2022-11-03T22:36:55.735Z,93703.06
2022-11-03T22:39:41.240Z,93679.91
2022-11-03T22:42:30.370Z,93715.50
2022-11-03T22:45:15.734Z,93722.13
2022-11-03T22:47:42.496Z,93732.41
2022-11-03T22:50:09.780Z,93740.91
2022-11-03T22:52:36.608Z,93749.25
2022-11-03T22:55:03.850Z,93745.31
2022-11-03T22:57:30.603Z,93731.31
2022-11-03T22:59:57.299Z,93732.38
2022-11-03T23:02:24.125Z,93732.41
2022-11-03T23:04:50.962Z,93713.00
2022-11-03T23:07:17.719Z,93706.75
2022-11-03T23:09:44.440Z,93717.06
2022-11-03T23:12:11.503Z,93714.22
2022-11-03T23:14:56.739Z,93715.41
2022-11-03T23:17:43.464Z,93717.97
2022-11-03T23:20:39.662Z,93753.81
2022-11-03T23:23:06.628Z,93748.69
2022-11-03T23:25:33.584Z,93753.56
2022-11-03T23:28:00.297Z,93751.94
2022-11-03T23:30:27.096Z,93743.78
2022-11-03T23:32:53.814Z,93745.00
2022-11-03T23:35:20.534Z,93755.56
2022-11-03T23:37:47.279Z,93742.00
2022-11-03T23:40:17.231Z,93747.44
2022-11-03T23:42:47.163Z,93745.03
2022-11-03T23:45:32.779Z,93731.50
2022-11-03T23:48:18.158Z,93734.66
2022-11-03T23:50:44.974Z,93721.53
2022-11-03T23:53:11.690Z,93712.97
2022-11-03T23:55:56.968Z,93715.41
2022-11-03T23:58:23.697Z,93704.03
